createdAt,value
2023-03-04T00:01:31.598Z,61.90
2023-03-04T00:03:58.591Z,61.76
2023-03-04T00:06:25.550Z,61.74
2023-03-04T00:08:52.480Z,63.34
2023-03-04T00:11:19.411Z,62.50
2023-03-04T00:13:46.319Z,62.23
2023-03-04T00:16:13.292Z,61.58
2023-03-04T00:18:40.192Z,61.25
2023-03-04T00:21:07.291Z,60.90
2023-03-04T00:23:34.186Z,62.01
2023-03-04T00:26:01.038Z,61.17
2023-03-04T00:28:28.324Z,62.02
2023-03-04T00:30:55.234Z,62.76
2023-03-04T00:33:22.263Z,63.66
2023-03-04T00:35:49.276Z,63.20
2023-03-04T00:38:16.194Z,62.96
2023-03-04T00:40:43.175Z,62.46
2023-03-04T00:43:10.073Z,62.11
2023-03-04T00:45:36.986Z,61.95
2023-03-04T00:48:03.974Z,61.47
2023-03-04T00:50:30.832Z,61.58
2023-03-04T00:52:57.806Z,61.77
2023-03-04T00:55:24.682Z,61.84
2023-03-04T00:57:51.568Z,62.05
2023-03-04T01:00:18.744Z,61.65
2023-03-04T01:02:45.693Z,61.50
2023-03-04T01:05:13.079Z,61.60
2023-03-04T01:07:40.073Z,62.03
2023-03-04T01:10:08.373Z,61.91
2023-03-04T01:12:35.253Z,61.47
2023-03-04T01:15:02.409Z,62.94
2023-03-04T01:17:29.223Z,62.20
2023-03-04T01:19:56.085Z,63.09
2023-03-04T01:22:22.899Z,62.97
2023-03-04T01:24:49.804Z,63.77
2023-03-04T01:27:17.166Z,63.73
2023-03-04T01:29:44.190Z,63.46
2023-03-04T01:32:11.513Z,66.17
2023-03-04T01:34:38.630Z,67.81
2023-03-04T01:37:05.660Z,65.98
2023-03-04T01:39:32.604Z,67.09
2023-03-04T01:42:00.024Z,66.72
2023-03-04T01:44:27.232Z,66.17
2023-03-04T01:46:56.178Z,65.56
2023-03-04T01:49:23.884Z,68.62
2023-03-04T01:51:54.140Z,66.26
2023-03-04T01:54:22.711Z,65.87
2023-03-04T01:56:51.639Z,65.31
2023-03-04T01:59:24.216Z,65.85
2023-03-04T02:01:58.881Z,65.53
2023-03-04T02:04:29.554Z,65.67
2023-03-04T02:06:58.352Z,65.05
2023-03-04T02:09:25.371Z,64.67
2023-03-04T02:11:53.071Z,64.69
2023-03-04T02:14:20.810Z,65.46
2023-03-04T02:16:49.128Z,65.83
2023-03-04T02:19:47.241Z,65.12
2023-03-04T02:22:14.233Z,64.32
2023-03-04T02:24:50.995Z,63.52
2023-03-04T02:27:18.508Z,63.21
2023-03-04T02:29:46.395Z,62.86
2023-03-04T02:32:14.713Z,63.56
2023-03-04T02:34:48.048Z,63.04
2023-03-04T02:37:17.039Z,63.57
2023-03-04T02:39:47.927Z,63.73
2023-03-04T02:42:15.504Z,65.02
2023-03-04T02:44:46.698Z,64.81
2023-03-04T02:47:18.076Z,66.85
2023-03-04T02:49:45.431Z,70.46
2023-03-04T02:52:20.721Z,67.47
2023-03-04T02:54:47.968Z,67.29
2023-03-04T02:57:15.717Z,67.32
2023-03-04T02:59:42.619Z,66.77
2023-03-04T03:02:10.350Z,66.13
2023-03-04T03:04:38.892Z,65.35
2023-03-04T03:07:06.365Z,64.64
2023-03-04T03:09:33.226Z,64.16
2023-03-04T03:12:00.173Z,64.93
2023-03-04T03:14:27.115Z,66.05
2023-03-04T03:16:53.974Z,65.28
2023-03-04T03:19:20.850Z,65.54
2023-03-04T03:21:47.797Z,65.90
2023-03-04T03:24:15.464Z,65.45
2023-03-04T03:26:42.370Z,65.94
2023-03-04T03:29:09.245Z,65.71
2023-03-04T03:31:36.234Z,66.20
2023-03-04T03:34:03.180Z,67.41
2023-03-04T03:36:30.132Z,66.38
2023-03-04T03:38:58.000Z,65.75
2023-03-04T03:41:25.038Z,65.81
2023-03-04T03:43:51.940Z,64.90
2023-03-04T03:46:18.835Z,64.62
2023-03-04T03:48:45.797Z,64.10
2023-03-04T03:51:12.710Z,63.77
2023-03-04T03:53:39.661Z,63.96
2023-03-04T03:56:07.071Z,63.65
2023-03-04T03:58:34.019Z,63.82
2023-03-04T04:01:00.919Z,63.87
2023-03-04T04:03:27.811Z,63.45
2023-03-04T04:05:54.671Z,63.25
2023-03-04T04:08:21.611Z,62.77
2023-03-04T04:10:49.079Z,63.35
2023-03-04T04:13:15.930Z,62.97
2023-03-04T04:15:42.820Z,62.99
2023-03-04T04:18:09.760Z,62.92
2023-03-04T04:20:36.979Z,62.82
2023-03-04T04:23:04.505Z,62.49
2023-03-04T04:25:31.536Z,62.77
2023-03-04T04:27:58.612Z,63.04
2023-03-04T04:30:25.783Z,62.87
2023-03-04T04:32:52.768Z,65.68
2023-03-04T04:35:19.920Z,65.71
2023-03-04T04:37:47.084Z,65.62
2023-03-04T04:40:14.239Z,68.32
2023-03-04T04:42:41.309Z,70.28
2023-03-04T04:45:08.916Z,68.36
2023-03-04T04:47:35.844Z,67.45
2023-03-04T04:50:03.204Z,67.41
2023-03-04T04:52:30.153Z,68.22
2023-03-04T04:54:57.294Z,67.29
2023-03-04T04:57:24.315Z,66.81
2023-03-04T04:59:51.275Z,66.92
2023-03-04T05:02:18.174Z,66.68
2023-03-04T05:04:45.113Z,67.79
2023-03-04T05:07:12.010Z,67.40
2023-03-04T05:09:38.973Z,66.78
2023-03-04T05:12:06.014Z,66.24
2023-03-04T05:14:32.966Z,65.85
2023-03-04T05:16:59.967Z,65.71
2023-03-04T05:19:27.125Z,65.51
2023-03-04T05:21:54.163Z,66.62
2023-03-04T05:24:21.759Z,68.01
2023-03-04T05:26:48.751Z,67.25
2023-03-04T05:29:15.678Z,66.55
2023-03-04T05:31:42.559Z,66.23
2023-03-04T05:34:09.415Z,67.54
2023-03-04T05:36:36.552Z,66.37
2023-03-04T05:39:03.573Z,66.87
2023-03-04T05:41:30.705Z,66.20
2023-03-04T05:43:57.880Z,68.08
2023-03-04T05:46:25.883Z,68.11
2023-03-04T05:48:54.381Z,69.83
2023-03-04T05:51:22.160Z,69.86
2023-03-04T05:53:49.501Z,69.44
2023-03-04T05:56:19.200Z,69.98
2023-03-04T05:58:47.780Z,68.82
2023-03-04T06:01:14.826Z,68.10
2023-03-04T06:03:43.741Z,66.21
2023-03-04T06:06:10.898Z,65.29
2023-03-04T06:08:37.885Z,64.51
2023-03-04T06:11:05.855Z,63.31
2023-03-04T06:13:33.314Z,62.04
2023-03-04T06:16:00.902Z,60.91
2023-03-04T06:18:29.045Z,60.85
2023-03-04T06:20:58.697Z,59.96
2023-03-04T06:23:26.337Z,58.53
2023-03-04T06:25:55.398Z,57.24
2023-03-04T06:28:23.022Z,56.47
2023-03-04T06:30:53.262Z,55.70
2023-03-04T06:33:20.481Z,55.61
2023-03-04T06:35:48.014Z,54.13
2023-03-04T06:38:15.306Z,54.11
2023-03-04T06:40:42.278Z,53.19
2023-03-04T06:43:09.285Z,51.72
2023-03-04T06:45:36.168Z,50.92
2023-03-04T06:48:03.194Z,50.12
2023-03-04T06:50:30.138Z,49.14
2023-03-04T06:52:58.084Z,49.28
2023-03-04T06:55:25.248Z,47.13
2023-03-04T06:57:52.197Z,47.28
2023-03-04T07:00:20.000Z,47.35
2023-03-04T07:02:47.032Z,46.66
2023-03-04T07:05:14.250Z,44.88
2023-03-04T07:07:41.288Z,44.83
2023-03-04T07:10:10.338Z,44.08
2023-03-04T07:12:37.292Z,44.73
2023-03-04T07:15:04.600Z,44.08
2023-03-04T07:17:31.843Z,44.00
2023-03-04T07:19:58.757Z,42.91
2023-03-04T07:22:25.768Z,42.58
2023-03-04T07:24:52.781Z,42.51
2023-03-04T07:27:19.726Z,42.75
2023-03-04T07:29:46.774Z,41.62
2023-03-04T07:32:14.148Z,42.11
2023-03-04T07:34:41.203Z,40.15
2023-03-04T07:37:08.251Z,40.18
2023-03-04T07:39:35.298Z,40.51
2023-03-04T07:42:02.299Z,39.66
2023-03-04T07:44:29.444Z,38.98
2023-03-04T07:46:56.443Z,38.28
2023-03-04T07:49:23.483Z,39.20
2023-03-04T07:51:50.509Z,39.67
2023-03-04T07:54:20.309Z,38.11
2023-03-04T07:56:47.154Z,37.67
2023-03-04T07:59:14.186Z,38.08
2023-03-04T08:01:41.142Z,38.07
2023-03-04T08:04:08.411Z,38.05
2023-03-04T08:06:35.795Z,37.09
2023-03-04T08:09:06.642Z,36.20
2023-03-04T08:11:34.882Z,37.61
2023-03-04T08:14:01.941Z,35.88
2023-03-04T08:16:29.127Z,34.70
2023-03-04T08:18:58.249Z,35.69
2023-03-04T08:21:27.451Z,34.01
2023-03-04T08:23:55.470Z,35.20
2023-03-04T08:26:26.513Z,34.09
2023-03-04T08:28:54.731Z,36.58
2023-03-04T08:31:21.900Z,38.07
2023-03-04T08:33:49.447Z,37.15
2023-03-04T08:36:16.616Z,36.14
2023-03-04T08:38:43.718Z,34.81
2023-03-04T08:41:10.829Z,35.74
2023-03-04T08:43:37.874Z,34.05
2023-03-04T08:46:05.738Z,34.36
2023-03-04T08:48:32.944Z,34.92
2023-03-04T08:51:00.487Z,33.21
2023-03-04T08:53:27.564Z,35.60
2023-03-04T08:55:54.645Z,33.30
2023-03-04T08:58:21.810Z,32.83
2023-03-04T09:00:51.791Z,32.15
2023-03-04T09:03:20.646Z,32.20
2023-03-04T09:05:48.685Z,33.83
2023-03-04T09:08:17.167Z,33.68
2023-03-04T09:10:46.131Z,32.37
2023-03-04T09:13:16.394Z,31.67
2023-03-04T09:15:48.181Z,31.31
2023-03-04T09:18:16.004Z,31.07
2023-03-04T09:20:43.854Z,29.55
2023-03-04T09:23:11.192Z,31.26
2023-03-04T09:25:38.889Z,31.85
2023-03-04T09:28:07.078Z,30.62
2023-03-04T09:30:35.308Z,31.99
2023-03-04T09:33:02.638Z,31.75
2023-03-04T09:35:32.770Z,31.14
2023-03-04T09:38:00.432Z,30.70
2023-03-04T09:40:33.776Z,30.30
2023-03-04T09:43:04.239Z,29.97
2023-03-04T09:45:47.472Z,29.04
2023-03-04T09:48:18.162Z,29.51
2023-03-04T09:51:02.667Z,28.59
2023-03-04T09:53:49.806Z,29.80
2023-03-04T09:56:17.007Z,30.33
2023-03-04T09:59:02.358Z,30.94
2023-03-04T10:01:42.123Z,30.82
2023-03-04T10:04:25.695Z,32.37
2023-03-04T10:06:54.872Z,28.90
2023-03-04T10:10:06.775Z,29.73
2023-03-04T10:12:38.153Z,30.17
2023-03-04T10:15:17.686Z,30.76
2023-03-04T10:17:49.053Z,30.67
2023-03-04T10:20:22.043Z,28.40
2023-03-04T10:22:53.811Z,29.44
2023-03-04T10:25:20.605Z,32.35
2023-03-04T10:27:55.080Z,30.08
2023-03-04T10:30:31.052Z,28.32
2023-03-04T10:32:58.184Z,29.07
2023-03-04T10:35:33.556Z,28.84
2023-03-04T10:38:03.590Z,29.15
2023-03-04T10:40:38.902Z,28.52
2023-03-04T10:43:09.064Z,28.58
2023-03-04T10:45:40.697Z,28.27
2023-03-04T10:48:19.845Z,28.41
2023-03-04T10:50:47.024Z,27.87
2023-03-04T10:53:33.726Z,27.47
2023-03-04T10:56:01.036Z,25.51
2023-03-04T10:58:27.988Z,26.65
2023-03-04T11:01:04.404Z,27.28
2023-03-04T11:03:34.905Z,26.25
2023-03-04T11:06:32.760Z,27.82
2023-03-04T11:09:00.538Z,27.54
2023-03-04T11:11:44.990Z,27.43
2023-03-04T11:14:24.509Z,25.49
2023-03-04T11:16:55.797Z,25.50
2023-03-04T11:19:26.466Z,25.29
2023-03-04T11:21:54.214Z,26.34
2023-03-04T11:24:29.583Z,26.12
2023-03-04T11:27:13.379Z,25.75
2023-03-04T11:29:46.394Z,25.46
2023-03-04T11:32:24.389Z,26.04
2023-03-04T11:35:03.540Z,24.68
2023-03-04T11:37:36.517Z,23.45
2023-03-04T11:40:07.507Z,25.63
2023-03-04T11:42:55.982Z,25.03
2023-03-04T11:45:46.671Z,25.08
2023-03-04T11:48:33.250Z,24.79
2023-03-04T11:51:00.053Z,24.99
2023-03-04T11:53:38.996Z,25.86
2023-03-04T11:56:25.048Z,25.06
2023-03-04T11:59:10.689Z,24.49
2023-03-04T12:01:46.710Z,25.36
2023-03-04T12:04:29.020Z,25.94
2023-03-04T12:07:21.488Z,24.47
2023-03-04T12:09:58.388Z,25.08
2023-03-04T12:12:50.260Z,24.29
2023-03-04T12:15:20.380Z,23.71
2023-03-04T12:17:53.904Z,24.69
2023-03-04T12:20:42.474Z,25.65
2023-03-04T12:23:09.372Z,24.77
2023-03-04T12:25:55.893Z,24.66
2023-03-04T12:28:26.099Z,24.52
2023-03-04T12:31:11.477Z,23.94
2023-03-04T12:33:45.402Z,24.65
2023-03-04T12:36:24.460Z,23.90
2023-03-04T12:39:23.928Z,25.18
2023-03-04T12:42:02.778Z,26.50
2023-03-04T12:44:42.160Z,26.46
2023-03-04T12:47:18.965Z,25.05
2023-03-04T12:50:19.890Z,25.65
2023-03-04T12:53:05.329Z,25.62
2023-03-04T12:55:42.366Z,24.04
2023-03-04T12:58:25.353Z,25.08
2023-03-04T13:01:21.799Z,24.83
2023-03-04T13:04:23.456Z,30.04
2023-03-04T13:07:14.965Z,28.81
2023-03-04T13:09:58.774Z,28.85
2023-03-04T13:12:25.841Z,27.89
2023-03-04T13:15:07.775Z,30.07
2023-03-04T13:17:45.716Z,27.41
2023-03-04T13:20:32.265Z,27.24
2023-03-04T13:23:26.448Z,30.21
2023-03-04T13:25:56.656Z,30.99
2023-03-04T13:28:25.431Z,29.82
2023-03-04T13:30:52.266Z,29.02
2023-03-04T13:33:21.953Z,29.32
2023-03-04T13:35:48.947Z,28.16
2023-03-04T13:38:35.106Z,28.73
2023-03-04T13:41:20.093Z,28.93
2023-03-04T13:43:47.809Z,29.21
2023-03-04T13:46:20.847Z,30.96
2023-03-04T13:48:51.077Z,30.02
2023-03-04T13:51:41.612Z,30.22
2023-03-04T13:54:16.584Z,30.12
2023-03-04T13:56:47.718Z,30.76
2023-03-04T14:00:00.295Z,31.09
2023-03-04T14:02:27.512Z,30.08
2023-03-04T14:04:54.401Z,30.45
2023-03-04T14:07:33.327Z,29.96
2023-03-04T14:10:12.781Z,30.29
2023-03-04T14:12:53.106Z,30.29
2023-03-04T14:15:31.363Z,30.81
2023-03-04T14:18:01.282Z,30.58
2023-03-04T14:20:32.439Z,29.59
2023-03-04T14:23:01.518Z,29.02
2023-03-04T14:25:31.719Z,30.06
2023-03-04T14:28:19.308Z,29.69
2023-03-04T14:30:57.422Z,30.30
2023-03-04T14:33:31.492Z,29.89
2023-03-04T14:36:02.919Z,29.80
2023-03-04T14:38:38.315Z,29.53
2023-03-04T14:41:21.360Z,29.51
2023-03-04T14:43:55.486Z,30.84
2023-03-04T14:46:24.992Z,29.56
2023-03-04T14:48:54.428Z,30.06
2023-03-04T14:51:41.858Z,29.86
2023-03-04T14:54:34.060Z,29.70
2023-03-04T14:57:21.244Z,29.72
2023-03-04T14:59:48.294Z,30.41
2023-03-04T15:02:31.625Z,31.23
2023-03-04T15:05:01.956Z,31.15
2023-03-04T15:07:35.612Z,32.16
2023-03-04T15:10:06.910Z,32.44
2023-03-04T15:12:39.737Z,33.17
2023-03-04T15:15:43.798Z,33.66
2023-03-04T15:18:23.690Z,34.58
2023-03-04T15:21:19.855Z,34.49
2023-03-04T15:23:47.518Z,34.60
2023-03-04T15:26:14.595Z,34.47
2023-03-04T15:28:42.574Z,33.88
2023-03-04T15:31:24.815Z,33.72
2023-03-04T15:33:53.020Z,33.18
2023-03-04T15:36:23.084Z,34.54
2023-03-04T15:38:52.653Z,34.61
2023-03-04T15:41:27.060Z,35.51
2023-03-04T15:43:54.714Z,34.40
2023-03-04T15:46:22.474Z,34.09
2023-03-04T15:48:49.836Z,34.27
2023-03-04T15:51:22.361Z,34.53
2023-03-04T15:53:52.791Z,36.06
2023-03-04T15:56:23.424Z,35.81
2023-03-04T15:58:55.770Z,35.67
2023-03-04T16:01:23.793Z,36.48
2023-03-04T16:03:53.498Z,35.76
2023-03-04T16:06:24.698Z,36.08
2023-03-04T16:08:52.285Z,35.82
2023-03-04T16:11:25.981Z,35.69
2023-03-04T16:13:53.343Z,36.08
2023-03-04T16:16:20.614Z,36.33
2023-03-04T16:18:47.821Z,36.16
2023-03-04T16:21:18.491Z,36.89
2023-03-04T16:23:47.877Z,36.42
2023-03-04T16:26:18.249Z,36.45
2023-03-04T16:28:45.455Z,37.08
2023-03-04T16:31:14.534Z,37.31
2023-03-04T16:33:42.231Z,37.01
2023-03-04T16:36:17.216Z,36.76
2023-03-04T16:38:44.625Z,36.72
2023-03-04T16:41:14.910Z,36.70
2023-03-04T16:43:43.119Z,37.59
2023-03-04T16:46:14.007Z,37.22
2023-03-04T16:48:41.409Z,39.44
2023-03-04T16:51:17.172Z,39.21
2023-03-04T16:53:49.463Z,38.72
2023-03-04T16:56:18.814Z,38.48
2023-03-04T16:58:46.897Z,37.35
2023-03-04T17:01:24.794Z,37.30
2023-03-04T17:03:52.697Z,37.14
2023-03-04T17:06:21.083Z,37.08
2023-03-04T17:08:48.129Z,36.92
2023-03-04T17:11:21.517Z,37.01
2023-03-04T17:13:49.721Z,36.80
2023-03-04T17:16:17.841Z,36.77
2023-03-04T17:18:46.259Z,37.46
2023-03-04T17:21:20.738Z,37.09
2023-03-04T17:23:47.785Z,36.85
2023-03-04T17:26:15.831Z,36.88
2023-03-04T17:28:43.481Z,36.69
2023-03-04T17:31:16.636Z,36.48
2023-03-04T17:33:44.181Z,36.56
2023-03-04T17:36:12.862Z,36.61
2023-03-04T17:38:39.980Z,36.46
2023-03-04T17:41:09.589Z,36.29
2023-03-04T17:43:36.699Z,36.33
2023-03-04T17:46:09.649Z,37.57
2023-03-04T17:48:36.821Z,38.56
2023-03-04T17:51:04.155Z,38.09
2023-03-04T17:53:31.640Z,37.30
2023-03-04T17:56:01.145Z,37.07
2023-03-04T17:58:29.868Z,36.54
2023-03-04T18:01:06.855Z,37.56
2023-03-04T18:03:34.081Z,38.07
2023-03-04T18:06:01.253Z,37.62
2023-03-04T18:08:28.261Z,38.13
2023-03-04T18:10:55.199Z,39.14
2023-03-04T18:13:22.168Z,39.31
2023-03-04T18:15:49.121Z,38.69
2023-03-04T18:18:16.241Z,38.76
2023-03-04T18:20:43.167Z,38.43
2023-03-04T18:23:10.240Z,40.52
2023-03-04T18:25:37.352Z,40.79
2023-03-04T18:28:04.512Z,40.35
2023-03-04T18:30:31.654Z,40.14
2023-03-04T18:33:02.860Z,41.03
2023-03-04T18:35:29.990Z,41.99
2023-03-04T18:37:56.864Z,43.11
2023-03-04T18:40:23.987Z,42.49
2023-03-04T18:42:51.249Z,42.09
2023-03-04T18:45:18.497Z,42.88
2023-03-04T18:47:49.469Z,42.88
2023-03-04T18:50:16.849Z,43.20
2023-03-04T18:52:44.498Z,42.52
2023-03-04T18:55:13.194Z,42.77
2023-03-04T18:57:47.080Z,43.28
2023-03-04T19:00:24.428Z,44.11
2023-03-04T19:03:03.084Z,43.86
2023-03-04T19:05:32.463Z,43.93
2023-03-04T19:08:00.067Z,43.04
2023-03-04T19:10:29.158Z,44.34
2023-03-04T19:12:57.669Z,44.13
2023-03-04T19:15:24.619Z,43.43
2023-03-04T19:17:51.841Z,44.05
2023-03-04T19:20:19.073Z,44.35
2023-03-04T19:22:46.393Z,44.79
2023-03-04T19:25:13.492Z,45.21
2023-03-04T19:27:40.515Z,44.67
2023-03-04T19:30:08.586Z,46.60
2023-03-04T19:32:35.786Z,46.72
2023-03-04T19:35:03.047Z,46.66
2023-03-04T19:37:30.186Z,47.68
2023-03-04T19:39:57.167Z,47.12
2023-03-04T19:42:24.365Z,46.83
2023-03-04T19:44:51.684Z,47.51
2023-03-04T19:47:18.609Z,47.47
2023-03-04T19:49:45.654Z,48.56
2023-03-04T19:52:12.587Z,48.96
2023-03-04T19:54:39.597Z,49.94
2023-03-04T19:57:07.123Z,49.08
2023-03-04T19:59:35.118Z,50.32
2023-03-04T20:02:03.237Z,50.15
2023-03-04T20:04:30.177Z,51.02
2023-03-04T20:06:57.385Z,52.48
2023-03-04T20:09:25.148Z,52.44
2023-03-04T20:11:58.746Z,53.50
2023-03-04T20:14:27.723Z,53.53
2023-03-04T20:16:58.996Z,53.54
2023-03-04T20:19:25.980Z,54.35
2023-03-04T20:21:52.999Z,54.81
2023-03-04T20:24:23.389Z,54.41
2023-03-04T20:26:51.117Z,54.32
2023-03-04T20:29:18.685Z,54.59
2023-03-04T20:31:46.585Z,54.84
2023-03-04T20:34:13.742Z,53.80
2023-03-04T20:36:40.838Z,53.95
2023-03-04T20:39:25.773Z,54.31
2023-03-04T20:41:55.673Z,54.65
2023-03-04T20:44:22.652Z,55.20
2023-03-04T20:46:49.584Z,55.39
2023-03-04T20:49:27.564Z,53.91
2023-03-04T20:51:58.254Z,54.76
2023-03-04T20:54:25.234Z,55.47
2023-03-04T20:56:52.226Z,54.40
2023-03-04T20:59:19.255Z,54.81
2023-03-04T21:01:48.250Z,56.32
2023-03-04T21:04:15.362Z,55.65
2023-03-04T21:06:43.777Z,56.14
2023-03-04T21:09:14.672Z,56.33
2023-03-04T21:11:42.884Z,55.07
2023-03-04T21:14:26.130Z,54.75
2023-03-04T21:16:55.816Z,54.34
2023-03-04T21:19:25.548Z,54.86
2023-03-04T21:21:52.476Z,56.16
2023-03-04T21:24:26.518Z,57.17
2023-03-04T21:26:53.608Z,55.05
2023-03-04T21:29:24.060Z,57.20
2023-03-04T21:31:54.394Z,55.31
2023-03-04T21:34:33.858Z,55.99
2023-03-04T21:37:01.600Z,55.47
2023-03-04T21:39:28.790Z,54.97
2023-03-04T21:41:57.387Z,55.23
2023-03-04T21:44:28.682Z,54.40
2023-03-04T21:47:01.019Z,57.06
2023-03-04T21:49:28.205Z,55.44
2023-03-04T21:51:55.165Z,54.68
2023-03-04T21:54:22.651Z,54.56
2023-03-04T21:56:50.471Z,57.15
2023-03-04T21:59:20.254Z,55.20
2023-03-04T22:01:47.280Z,56.43
2023-03-04T22:04:14.449Z,55.87
2023-03-04T22:06:41.562Z,55.44
2023-03-04T22:09:08.623Z,55.91
2023-03-04T22:11:35.675Z,56.14
2023-03-04T22:14:03.542Z,56.65
2023-03-04T22:16:35.412Z,56.11
2023-03-04T22:19:04.883Z,55.90
2023-03-04T22:21:31.847Z,55.67
2023-03-04T22:23:59.030Z,55.10
2023-03-04T22:26:31.981Z,54.76
2023-03-04T22:29:01.121Z,55.93
2023-03-04T22:31:31.697Z,54.83
2023-03-04T22:34:17.079Z,54.39
2023-03-04T22:36:45.761Z,53.91
2023-03-04T22:39:15.749Z,54.50
2023-03-04T22:41:42.964Z,54.75
2023-03-04T22:44:10.076Z,55.87
2023-03-04T22:46:39.326Z,55.93
2023-03-04T22:49:10.148Z,56.42
2023-03-04T22:51:38.103Z,55.06
2023-03-04T22:54:05.192Z,55.92
2023-03-04T22:56:32.115Z,55.67
2023-03-04T22:58:59.302Z,56.85
2023-03-04T23:01:26.244Z,55.80
2023-03-04T23:03:53.262Z,56.55
2023-03-04T23:06:23.102Z,55.90
2023-03-04T23:08:51.280Z,54.92
2023-03-04T23:11:25.585Z,55.07
2023-03-04T23:13:54.306Z,56.09
2023-03-04T23:16:22.317Z,55.75
2023-03-04T23:18:50.003Z,57.33
2023-03-04T23:21:22.680Z,56.10
2023-03-04T23:23:51.076Z,55.84
2023-03-04T23:26:23.843Z,54.80
2023-03-04T23:28:51.200Z,55.18
2023-03-04T23:31:19.145Z,54.96
2023-03-04T23:33:47.941Z,54.05
2023-03-04T23:36:17.572Z,53.36
2023-03-04T23:38:48.543Z,53.72
2023-03-04T23:41:21.338Z,53.33
2023-03-04T23:43:48.825Z,52.90
2023-03-04T23:46:16.341Z,52.30
2023-03-04T23:48:46.482Z,52.41
2023-03-04T23:51:19.030Z,53.28
2023-03-04T23:53:46.326Z,52.86
2023-03-04T23:56:15.713Z,52.96
2023-03-04T23:58:43.000Z,53.04
